createdAt,value
2019-03-18T00:00:54.662Z,99.90
2019-03-18T00:03:25.100Z,99.90
2019-03-18T00:05:55.505Z,62.50
2019-03-18T00:08:25.866Z,1.00
2019-03-18T00:10:56.221Z,99.90
2019-03-18T00:13:26.589Z,99.90
2019-03-18T00:15:57.009Z,99.90
2019-03-18T00:18:27.378Z,99.90
2019-03-18T00:20:57.774Z,99.90
2019-03-18T00:23:28.127Z,1.00
2019-03-18T00:25:58.529Z,1.00
2019-03-18T00:28:28.900Z,99.90
2019-03-18T00:30:59.262Z,99.90
2019-03-18T00:33:29.618Z,1.00
2019-03-18T00:35:59.986Z,99.90
2019-03-18T00:38:30.375Z,99.90
2019-03-18T00:41:00.756Z,1.00
2019-03-18T00:43:31.116Z,99.90
2019-03-18T00:46:01.531Z,62.30
2019-03-18T00:48:31.869Z,31.60
2019-03-18T00:51:02.241Z,1.00
2019-03-18T00:53:32.600Z,1.00
2019-03-18T00:56:02.978Z,99.90
2019-03-18T00:58:33.379Z,24.90
2019-03-18T01:01:03.732Z,99.90
2019-03-18T01:03:34.094Z,99.90
2019-03-18T01:06:04.461Z,99.90
2019-03-18T01:08:34.869Z,1.00
2019-03-18T01:11:06.114Z,99.90
2019-03-18T01:13:36.541Z,1.00
2019-03-18T01:16:07.208Z,1.00
2019-03-18T01:18:37.610Z,1.00
2019-03-18T01:21:07.984Z,99.90
2019-03-18T01:23:38.386Z,99.90
2019-03-18T01:26:08.727Z,1.00
2019-03-18T01:28:39.124Z,1.00
2019-03-18T01:31:09.473Z,1.00
2019-03-18T01:33:39.833Z,1.00
2019-03-18T01:36:10.219Z,1.00
2019-03-18T01:38:40.579Z,1.00
2019-03-18T01:41:10.904Z,1.00
2019-03-18T01:43:41.262Z,1.00
2019-03-18T01:46:11.646Z,1.00
2019-03-18T01:48:42.025Z,1.00
2019-03-18T01:51:12.377Z,1.00
2019-03-18T01:53:42.751Z,1.00
2019-03-18T01:56:13.094Z,1.00
2019-03-18T01:58:43.479Z,1.00
2019-03-18T02:01:13.845Z,1.00
2019-03-18T02:03:44.219Z,1.00
2019-03-18T02:06:14.659Z,1.00
2019-03-18T02:08:45.093Z,1.00
2019-03-18T02:11:15.449Z,1.00
2019-03-18T02:13:45.787Z,1.00
2019-03-18T02:16:16.165Z,1.00
2019-03-18T02:18:46.513Z,1.00
2019-03-18T02:21:16.956Z,1.00
2019-03-18T02:23:47.324Z,1.00
2019-03-18T02:26:17.712Z,1.00
2019-03-18T02:28:48.113Z,1.00
2019-03-18T02:31:18.570Z,1.00
2019-03-18T02:33:48.904Z,1.00
2019-03-18T02:36:19.340Z,1.00
2019-03-18T02:38:49.758Z,1.00
2019-03-18T02:41:20.249Z,1.00
2019-03-18T02:43:50.624Z,1.00
2019-03-18T02:46:21.081Z,1.00
2019-03-18T02:48:51.446Z,99.90
2019-03-18T02:51:21.816Z,99.90
2019-03-18T02:53:52.162Z,99.90
2019-03-18T02:56:22.604Z,99.90
2019-03-18T02:58:52.966Z,1.00
2019-03-18T03:01:23.352Z,1.00
2019-03-18T03:03:53.710Z,1.00
2019-03-18T03:06:24.125Z,1.00
2019-03-18T03:08:54.570Z,1.00
2019-03-18T03:11:24.967Z,1.00
2019-03-18T03:13:55.339Z,1.00
2019-03-18T03:16:27.582Z,1.00
2019-03-18T03:18:57.893Z,1.00
2019-03-18T03:21:28.267Z,1.00
2019-03-18T03:23:58.635Z,1.00
2019-03-18T03:26:29.048Z,1.00
2019-03-18T03:28:59.505Z,1.00
2019-03-18T03:31:29.948Z,1.00
2019-03-18T03:34:00.406Z,1.00
2019-03-18T03:36:30.887Z,1.00
2019-03-18T03:39:01.236Z,1.00
2019-03-18T03:41:32.247Z,1.00
2019-03-18T03:44:02.705Z,1.00
2019-03-18T03:46:42.836Z,1.00
2019-03-18T03:49:05.205Z,1.00
2019-03-18T03:51:35.604Z,1.00
2019-03-18T03:54:06.000Z,1.00
2019-03-18T03:56:36.358Z,1.00
2019-03-18T03:59:06.738Z,1.00
2019-03-18T04:01:37.070Z,1.00
2019-03-18T04:04:07.471Z,1.00
2019-03-18T04:06:37.828Z,1.00
2019-03-18T04:09:08.297Z,1.00
2019-03-18T04:11:38.649Z,1.00
2019-03-18T04:14:09.027Z,1.00
2019-03-18T04:16:39.542Z,1.00
2019-03-18T04:19:09.923Z,1.00
2019-03-18T04:21:40.291Z,1.00
2019-03-18T04:24:10.776Z,1.00
2019-03-18T04:26:41.215Z,1.00
2019-03-18T04:29:11.698Z,1.00
2019-03-18T04:31:42.060Z,1.00
2019-03-18T04:34:12.447Z,1.00
2019-03-18T04:36:42.824Z,1.00
2019-03-18T04:39:13.196Z,1.00
2019-03-18T04:41:43.569Z,1.00
2019-03-18T04:44:13.929Z,1.00
2019-03-18T04:46:44.316Z,1.00
2019-03-18T04:49:14.705Z,1.00
2019-03-18T04:51:45.065Z,1.00
2019-03-18T04:54:15.449Z,1.00
2019-03-18T04:56:45.845Z,1.00
2019-03-18T04:59:16.202Z,1.00
2019-03-18T05:01:46.574Z,1.00
2019-03-18T05:04:17.020Z,1.00
2019-03-18T05:06:47.463Z,19.70
2019-03-18T05:09:17.815Z,22.90
2019-03-18T05:11:48.234Z,15.40
2019-03-18T05:14:18.578Z,16.70
2019-03-18T05:16:48.956Z,39.20
2019-03-18T05:19:19.366Z,33.60
2019-03-18T05:21:49.773Z,37.90
2019-03-18T05:24:20.137Z,34.40
2019-03-18T05:26:50.553Z,47.70
2019-03-18T05:29:20.960Z,34.10
2019-03-18T05:31:51.346Z,21.00
2019-03-18T05:34:21.701Z,35.50
2019-03-18T05:36:52.235Z,18.60
2019-03-18T05:39:22.713Z,20.50
2019-03-18T05:41:53.091Z,16.30
2019-03-18T05:44:23.469Z,3.40
2019-03-18T05:46:53.922Z,1.00
2019-03-18T05:49:24.311Z,1.00
2019-03-18T05:51:54.715Z,1.00
2019-03-18T05:54:25.054Z,4.30
2019-03-18T05:56:55.460Z,1.00
2019-03-18T05:59:25.821Z,1.00
2019-03-18T06:01:56.475Z,15.20
2019-03-18T06:04:30.219Z,13.80
2019-03-18T06:07:00.607Z,10.60
2019-03-18T06:09:31.294Z,1.00
2019-03-18T06:12:01.703Z,1.00
2019-03-18T06:14:32.093Z,1.00
2019-03-18T06:17:02.537Z,1.00
2019-03-18T06:19:32.962Z,1.00
2019-03-18T06:22:03.361Z,1.00
2019-03-18T06:24:33.849Z,1.00
2019-03-18T06:27:04.284Z,1.00
2019-03-18T06:29:34.674Z,1.00
2019-03-18T06:32:05.049Z,1.00
2019-03-18T06:34:35.437Z,1.00
2019-03-18T06:37:05.809Z,1.00
2019-03-18T06:39:36.214Z,1.00
2019-03-18T06:42:06.625Z,1.00
2019-03-18T06:44:37.028Z,1.00
2019-03-18T06:47:07.394Z,1.00
2019-03-18T06:49:37.752Z,1.00
2019-03-18T06:52:08.118Z,1.00
2019-03-18T06:54:38.504Z,99.90
2019-03-18T06:57:08.874Z,99.90
2019-03-18T06:59:39.266Z,1.00
2019-03-18T07:02:09.615Z,1.00
2019-03-18T07:04:39.994Z,1.00
2019-03-18T07:07:10.368Z,1.00
2019-03-18T07:09:40.771Z,1.00
2019-03-18T07:12:11.172Z,99.90
2019-03-18T07:14:41.602Z,1.00
2019-03-18T07:17:11.986Z,1.00
2019-03-18T07:19:42.359Z,1.00
2019-03-18T07:22:12.739Z,1.00
2019-03-18T07:24:43.099Z,1.00
2019-03-18T07:27:17.976Z,1.00
2019-03-18T07:29:48.373Z,1.00
2019-03-18T07:32:18.846Z,1.00
2019-03-18T07:34:49.194Z,1.00
2019-03-18T07:37:19.605Z,99.90
2019-03-18T07:39:49.982Z,99.90
2019-03-18T07:42:20.403Z,99.90
2019-03-18T07:44:50.793Z,99.90
2019-03-18T07:47:21.368Z,1.00
2019-03-18T07:49:51.814Z,1.00
2019-03-18T07:52:22.198Z,99.90
2019-03-18T07:54:52.600Z,99.90
2019-03-18T07:57:22.985Z,99.90
2019-03-18T07:59:53.349Z,99.90
2019-03-18T08:02:23.858Z,99.90
2019-03-18T08:04:54.263Z,1.00
2019-03-18T08:07:24.683Z,99.90
2019-03-18T08:09:55.123Z,99.90
2019-03-18T08:12:25.620Z,99.90
2019-03-18T08:14:55.998Z,64.80
2019-03-18T08:17:26.394Z,1.00
2019-03-18T08:20:04.325Z,7.70
2019-03-18T08:22:34.739Z,99.90
2019-03-18T08:25:05.225Z,1.00
2019-03-18T08:27:35.626Z,1.00
2019-03-18T08:30:06.234Z,3.30
2019-03-18T08:32:36.624Z,35.10
2019-03-18T08:35:07.074Z,39.50
2019-03-18T08:37:37.443Z,45.30
2019-03-18T08:40:10.654Z,26.20
2019-03-18T08:42:41.033Z,20.20
2019-03-18T08:45:11.540Z,18.90
2019-03-18T08:47:41.901Z,9.70
2019-03-18T08:50:12.822Z,1.00
2019-03-18T08:52:43.423Z,21.10
2019-03-18T08:55:13.931Z,22.70
2019-03-18T08:57:44.286Z,47.00
2019-03-18T09:00:14.783Z,17.30
2019-03-18T09:02:45.143Z,23.70
2019-03-18T09:05:15.524Z,39.70
2019-03-18T09:07:45.875Z,11.60
2019-03-18T09:10:16.253Z,23.70
2019-03-18T09:12:46.635Z,1.00
2019-03-18T09:15:17.027Z,1.00
2019-03-18T09:17:47.383Z,1.00
2019-03-18T09:20:17.742Z,1.00
2019-03-18T09:22:48.122Z,99.90
2019-03-18T09:25:18.520Z,99.90
2019-03-18T09:27:48.956Z,99.90
2019-03-18T09:30:19.718Z,99.90
2019-03-18T09:32:50.069Z,1.00
2019-03-18T09:35:20.455Z,99.90
2019-03-18T09:37:50.824Z,1.00
2019-03-18T09:40:21.220Z,1.00
2019-03-18T09:42:51.608Z,1.00
2019-03-18T09:45:21.959Z,1.00
2019-03-18T09:47:52.329Z,17.90
2019-03-18T09:50:22.977Z,39.30
2019-03-18T09:52:53.359Z,1.00
2019-03-18T09:55:23.742Z,99.90
2019-03-18T09:57:57.358Z,99.90
2019-03-18T10:00:27.796Z,99.90
2019-03-18T10:02:58.145Z,70.30
2019-03-18T10:05:28.532Z,99.90
2019-03-18T10:07:58.902Z,17.30
2019-03-18T10:10:29.298Z,1.00
2019-03-18T10:12:59.755Z,1.00
2019-03-18T10:15:30.175Z,99.90
2019-03-18T10:18:00.562Z,99.90
2019-03-18T10:20:30.905Z,1.00
2019-03-18T10:23:03.027Z,1.00
2019-03-18T10:25:33.344Z,99.90
2019-03-18T10:28:03.770Z,1.00
2019-03-18T10:30:34.130Z,16.90
2019-03-18T10:33:04.591Z,1.00
2019-03-18T10:35:35.067Z,97.70
2019-03-18T10:38:05.505Z,99.90
2019-03-18T10:40:35.884Z,1.00
2019-03-18T10:43:06.542Z,99.90
2019-03-18T10:45:36.898Z,99.90
2019-03-18T10:48:07.293Z,1.00
2019-03-18T10:50:37.709Z,1.00
2019-03-18T10:53:08.068Z,1.00
2019-03-18T10:55:38.802Z,1.00
2019-03-18T10:58:09.231Z,1.00
2019-03-18T11:00:39.569Z,1.00
2019-03-18T11:03:09.963Z,99.90
2019-03-18T11:05:40.343Z,1.00
2019-03-18T11:08:10.721Z,94.50
2019-03-18T11:10:41.227Z,1.00
2019-03-18T11:13:11.640Z,1.00
2019-03-18T11:15:42.057Z,99.90
2019-03-18T11:18:12.438Z,99.90
2019-03-18T11:20:42.856Z,1.00
2019-03-18T11:23:13.226Z,99.90
2019-03-18T11:25:43.667Z,99.90
2019-03-18T11:28:14.108Z,1.00
2019-03-18T11:30:44.486Z,1.00
2019-03-18T11:33:14.857Z,1.00
2019-03-18T11:35:45.243Z,1.00
2019-03-18T11:38:15.698Z,1.00
2019-03-18T11:40:46.199Z,99.90
2019-03-18T11:43:16.615Z,99.90
2019-03-18T11:45:47.078Z,99.90
2019-03-18T11:48:17.433Z,99.90
2019-03-18T11:50:48.027Z,99.90
2019-03-18T11:53:18.416Z,99.90
2019-03-18T11:55:48.811Z,99.90
2019-03-18T11:58:19.268Z,99.90
2019-03-18T12:00:49.658Z,99.90
2019-03-18T12:03:20.080Z,99.90
2019-03-18T12:05:50.489Z,99.90
2019-03-18T12:08:20.834Z,99.90
2019-03-18T12:10:51.274Z,99.90
2019-03-18T12:13:21.668Z,99.90
2019-03-18T12:15:52.063Z,99.90
2019-03-18T12:18:22.474Z,99.90
2019-03-18T12:20:52.909Z,99.90
2019-03-18T12:23:23.288Z,99.90
2019-03-18T12:25:53.689Z,99.90
2019-03-18T12:28:24.110Z,99.90
2019-03-18T12:30:54.541Z,99.90
2019-03-18T12:33:24.946Z,99.90
2019-03-18T12:35:55.446Z,99.90
2019-03-18T12:38:25.810Z,99.90
2019-03-18T12:40:56.214Z,99.90
2019-03-18T12:43:26.602Z,99.90
2019-03-18T12:45:56.994Z,99.90
2019-03-18T12:48:27.465Z,99.90
2019-03-18T12:50:57.843Z,99.90
2019-03-18T12:53:28.221Z,99.90
2019-03-18T12:55:58.644Z,99.90
2019-03-18T12:58:29.084Z,99.90
2019-03-18T13:01:11.908Z,99.90
2019-03-18T13:03:31.585Z,99.90
2019-03-18T13:06:01.972Z,99.90
2019-03-18T13:08:33.681Z,99.90
2019-03-18T13:11:04.041Z,99.90
2019-03-18T13:13:34.448Z,99.90
2019-03-18T13:16:04.846Z,99.90
2019-03-18T13:18:35.242Z,99.90
2019-03-18T13:21:08.013Z,99.90
2019-03-18T13:23:37.717Z,99.90
2019-03-18T13:26:08.105Z,99.90
2019-03-18T13:28:38.558Z,99.90
2019-03-18T13:31:08.899Z,99.90
2019-03-18T13:33:41.509Z,99.90
2019-03-18T13:36:11.338Z,99.90
2019-03-18T13:38:41.759Z,99.90
2019-03-18T13:41:12.125Z,99.90
2019-03-18T13:43:42.512Z,99.90
2019-03-18T13:46:13.039Z,99.90
2019-03-18T13:48:43.426Z,99.90
2019-03-18T13:51:20.881Z,99.90
2019-03-18T13:53:45.851Z,99.90
2019-03-18T13:56:16.187Z,99.90
2019-03-18T13:58:46.611Z,99.90
2019-03-18T14:01:16.993Z,99.90
2019-03-18T14:03:47.371Z,99.90
2019-03-18T14:06:17.741Z,99.90
2019-03-18T14:08:48.279Z,99.90
2019-03-18T14:11:18.643Z,99.90
2019-03-18T14:13:49.225Z,99.90
2019-03-18T14:16:19.610Z,99.90
2019-03-18T14:18:49.951Z,99.90
2019-03-18T14:21:39.394Z,99.90
2019-03-18T14:24:09.745Z,99.90
2019-03-18T14:26:40.172Z,99.90
2019-03-18T14:29:10.600Z,99.90
2019-03-18T14:31:43.395Z,99.90
2019-03-18T14:34:13.011Z,99.90
2019-03-18T14:36:43.381Z,1.00
2019-03-18T14:39:13.715Z,1.00
2019-03-18T14:41:44.091Z,99.90
2019-03-18T14:44:14.432Z,99.90
2019-03-18T14:46:44.808Z,99.90
2019-03-18T14:49:15.174Z,45.10
2019-03-18T14:51:46.276Z,99.90
2019-03-18T14:54:16.789Z,1.00
2019-03-18T14:56:47.165Z,99.90
2019-03-18T14:59:17.522Z,1.00
2019-03-18T15:01:47.912Z,99.90
2019-03-18T15:04:18.255Z,75.10
2019-03-18T15:06:48.621Z,1.00
2019-03-18T15:09:18.974Z,99.90
2019-03-18T15:11:49.369Z,99.90
2019-03-18T15:14:19.732Z,99.90
2019-03-18T15:16:50.132Z,1.00
2019-03-18T15:19:20.581Z,1.00
2019-03-18T15:21:58.507Z,1.00
2019-03-18T15:24:22.998Z,1.00
2019-03-18T15:26:53.372Z,99.90
2019-03-18T15:29:23.763Z,99.90
2019-03-18T15:31:54.198Z,99.90
2019-03-18T15:34:24.565Z,99.90
2019-03-18T15:36:54.937Z,99.90
2019-03-18T15:39:25.269Z,1.00
2019-03-18T15:41:55.625Z,1.00
2019-03-18T15:44:26.002Z,99.90
2019-03-18T15:46:56.362Z,99.90
2019-03-18T15:49:26.730Z,99.90
2019-03-18T15:51:57.074Z,99.90
2019-03-18T15:54:27.496Z,65.80
2019-03-18T15:56:57.846Z,99.90
2019-03-18T15:59:28.278Z,99.90
2019-03-18T16:01:58.668Z,1.00
2019-03-18T16:04:29.137Z,1.00
2019-03-18T16:06:59.495Z,99.90
2019-03-18T16:09:29.882Z,99.90
2019-03-18T16:12:00.272Z,99.90
2019-03-18T16:14:30.730Z,99.90
2019-03-18T16:17:02.258Z,99.90
2019-03-18T16:19:32.857Z,99.90
2019-03-18T16:22:03.229Z,1.00
2019-03-18T16:24:33.614Z,99.90
2019-03-18T16:27:03.953Z,99.90
2019-03-18T16:29:34.361Z,99.90
2019-03-18T16:32:11.308Z,99.90
2019-03-18T16:34:36.991Z,99.90
2019-03-18T16:37:07.390Z,99.90
2019-03-18T16:39:37.804Z,99.90
2019-03-18T16:42:08.159Z,99.90
2019-03-18T16:44:38.554Z,99.90
2019-03-18T16:47:08.918Z,99.90
2019-03-18T16:49:39.306Z,99.90
2019-03-18T16:52:09.669Z,99.90
2019-03-18T16:54:40.070Z,99.90
2019-03-18T16:57:10.470Z,99.90
2019-03-18T16:59:40.877Z,99.90
2019-03-18T17:02:11.270Z,99.90
2019-03-18T17:04:41.783Z,99.90
2019-03-18T17:07:12.194Z,99.90
2019-03-18T17:09:42.550Z,99.90
2019-03-18T17:12:12.930Z,99.90
2019-03-18T17:14:43.325Z,99.90
2019-03-18T17:17:13.711Z,99.90
2019-03-18T17:19:44.084Z,99.90
2019-03-18T17:22:14.481Z,99.90
2019-03-18T17:24:44.942Z,99.10
2019-03-18T17:27:16.558Z,99.90
2019-03-18T17:29:47.117Z,99.90
2019-03-18T17:32:17.502Z,99.90
2019-03-18T17:34:47.882Z,99.90
2019-03-18T17:37:18.328Z,99.90
2019-03-18T17:39:48.700Z,99.90
2019-03-18T17:42:19.098Z,99.90
2019-03-18T17:44:49.501Z,95.80
2019-03-18T17:47:19.950Z,1.00
2019-03-18T17:49:50.341Z,1.00
2019-03-18T17:52:20.735Z,1.00
2019-03-18T17:54:51.114Z,1.00
2019-03-18T17:57:21.499Z,1.00
2019-03-18T17:59:51.847Z,1.00
2019-03-18T18:02:22.245Z,1.00
2019-03-18T18:05:02.400Z,1.00
2019-03-18T18:07:24.695Z,1.00
2019-03-18T18:09:55.079Z,1.00
2019-03-18T18:12:25.413Z,1.00
2019-03-18T18:14:55.789Z,1.00
2019-03-18T18:17:28.902Z,18.80
2019-03-18T18:19:59.293Z,20.20
2019-03-18T18:22:29.645Z,22.50
2019-03-18T18:25:00.053Z,29.30
2019-03-18T18:27:30.405Z,37.80
2019-03-18T18:30:00.835Z,36.70
2019-03-18T18:32:31.230Z,64.60
2019-03-18T18:35:01.606Z,71.70
2019-03-18T18:37:32.001Z,79.40
2019-03-18T18:40:04.736Z,76.40
2019-03-18T18:42:34.530Z,89.70
2019-03-18T18:45:05.237Z,95.30
2019-03-18T18:47:35.595Z,90.70
2019-03-18T18:50:06.829Z,99.90
2019-03-18T18:52:37.189Z,99.90
2019-03-18T18:55:07.654Z,99.90
2019-03-18T18:57:38.118Z,99.90
2019-03-18T19:00:11.101Z,99.90
2019-03-18T19:02:41.470Z,99.90
2019-03-18T19:05:12.531Z,99.90
2019-03-18T19:07:42.898Z,99.90
2019-03-18T19:10:13.554Z,99.90
2019-03-18T19:12:43.985Z,1.00
2019-03-18T19:15:18.973Z,1.00
2019-03-18T19:17:49.336Z,90.90
2019-03-18T19:20:19.815Z,99.90
2019-03-18T19:22:50.261Z,99.90
2019-03-18T19:25:20.641Z,99.90
2019-03-18T19:27:51.013Z,99.90
2019-03-18T19:30:21.476Z,99.90
2019-03-18T19:32:51.944Z,99.90
2019-03-18T19:35:22.366Z,99.90
2019-03-18T19:37:52.772Z,99.90
2019-03-18T19:40:23.144Z,99.90
2019-03-18T19:42:53.519Z,99.90
2019-03-18T19:45:23.887Z,99.90
2019-03-18T19:47:54.312Z,99.90
2019-03-18T19:50:24.715Z,99.90
2019-03-18T19:52:55.117Z,99.90
2019-03-18T19:55:25.481Z,37.10
2019-03-18T19:57:55.913Z,58.40
2019-03-18T20:00:26.357Z,1.00
2019-03-18T20:02:56.757Z,6.10
2019-03-18T20:05:27.138Z,1.00
2019-03-18T20:07:57.573Z,6.20
2019-03-18T20:10:28.012Z,5.70
2019-03-18T20:12:58.457Z,41.20
2019-03-18T20:15:28.889Z,91.30
2019-03-18T20:17:59.354Z,92.70
2019-03-18T20:20:29.749Z,99.90
2019-03-18T20:23:00.174Z,99.90
2019-03-18T20:25:30.581Z,99.90
2019-03-18T20:28:00.993Z,99.90
2019-03-18T20:30:31.422Z,99.90
2019-03-18T20:33:01.914Z,99.90
2019-03-18T20:35:32.279Z,99.90
2019-03-18T20:38:02.698Z,99.90
2019-03-18T20:40:33.050Z,99.90
2019-03-18T20:43:03.430Z,99.90
2019-03-18T20:45:33.867Z,99.90
2019-03-18T20:48:04.285Z,99.90
2019-03-18T20:50:34.818Z,99.90
2019-03-18T20:53:05.350Z,99.90
2019-03-18T20:55:35.863Z,1.00
2019-03-18T20:58:06.285Z,99.90
2019-03-18T21:00:36.797Z,99.90
2019-03-18T21:03:07.176Z,1.00
2019-03-18T21:05:37.646Z,1.00
2019-03-18T21:08:08.030Z,99.90
2019-03-18T21:10:38.452Z,99.90
2019-03-18T21:13:08.899Z,99.90
2019-03-18T21:15:39.328Z,99.90
2019-03-18T21:18:09.732Z,1.00
2019-03-18T21:20:40.145Z,1.00
2019-03-18T21:23:10.975Z,99.90
2019-03-18T21:25:41.371Z,99.90
2019-03-18T21:28:11.750Z,1.00
2019-03-18T21:30:42.182Z,1.00
2019-03-18T21:33:12.665Z,1.00
2019-03-18T21:35:43.283Z,1.00
2019-03-18T21:38:13.623Z,99.90
2019-03-18T21:40:44.022Z,1.00
2019-03-18T21:43:14.394Z,1.00
2019-03-18T21:45:44.793Z,1.00
2019-03-18T21:48:15.174Z,1.00
2019-03-18T21:50:45.585Z,1.00
2019-03-18T21:53:15.924Z,99.90
2019-03-18T21:55:46.361Z,19.60
2019-03-18T21:58:16.741Z,1.00
2019-03-18T22:00:47.127Z,1.00
2019-03-18T22:03:17.545Z,99.90
2019-03-18T22:05:47.971Z,99.90
2019-03-18T22:08:19.271Z,99.90
2019-03-18T22:10:49.638Z,99.90
2019-03-18T22:13:20.007Z,99.90
2019-03-18T22:15:50.414Z,99.90
2019-03-18T22:18:20.825Z,99.90
2019-03-18T22:20:51.183Z,99.90
2019-03-18T22:23:21.585Z,99.90
2019-03-18T22:25:51.952Z,1.00
2019-03-18T22:28:22.349Z,99.90
2019-03-18T22:30:52.789Z,99.90
2019-03-18T22:33:23.346Z,99.90
2019-03-18T22:35:53.897Z,1.00
2019-03-18T22:38:24.291Z,99.90
2019-03-18T22:40:54.656Z,1.00
2019-03-18T22:43:25.119Z,1.00
2019-03-18T22:45:55.438Z,1.00
2019-03-18T22:48:25.821Z,1.00
2019-03-18T22:50:56.173Z,1.00
2019-03-18T22:53:26.558Z,99.90
2019-03-18T22:55:56.923Z,1.00
2019-03-18T22:58:27.448Z,99.90
2019-03-18T23:01:11.927Z,1.00
2019-03-18T23:03:42.319Z,19.60
2019-03-18T23:06:12.653Z,1.00
2019-03-18T23:08:43.034Z,1.00
2019-03-18T23:11:13.471Z,11.80
2019-03-18T23:13:43.851Z,99.90
2019-03-18T23:16:14.342Z,99.90
2019-03-18T23:18:44.729Z,99.90
2019-03-18T23:21:15.173Z,99.90
2019-03-18T23:23:45.542Z,99.90
2019-03-18T23:26:15.935Z,99.90
2019-03-18T23:28:46.270Z,1.00
2019-03-18T23:31:16.695Z,1.00
2019-03-18T23:33:47.051Z,1.00
2019-03-18T23:36:17.492Z,99.90
2019-03-18T23:38:47.936Z,99.90
2019-03-18T23:41:18.355Z,1.00
2019-03-18T23:43:48.766Z,1.00
2019-03-18T23:46:19.707Z,99.90
2019-03-18T23:48:50.229Z,99.90
2019-03-18T23:51:20.599Z,1.00
2019-03-18T23:53:50.976Z,86.00
2019-03-18T23:56:21.402Z,1.00
2019-03-18T23:58:51.771Z,99.90
